Time;durP1;ratioP1;P1;durP2;ratioP2;P2;SDS_P1;SDS_P2;PMS_P1;PMS_P2;Temp;Humidity;BMP_temperature;BMP_pressure;BME280_temperature;BME280_humidity;BME280_pressure;Samples;Min_cycle;Max_cycle;Signal;HPM_P1;HPM_P2
2022/05/13 00:00:07;;;;;;;8.10;6.23;;;;;;;14.19;49.73;101195.94;690498;28;1243;-79
2022/05/13 00:00:28;;;;;;;8.95;6.72;;;;;;;14.13;49.54;101191.41;687707;28;1134;-79
2022/05/13 00:00:49;;;;;;;8.32;6.90;;;;;;;14.11;49.59;101191.41;685134;28;1182;-80
2022/05/13 00:01:11;;;;;;;10.03;7.00;;;;;;;14.05;49.68;101179.84;687795;28;1255;-79
2022/05/13 00:01:31;;;;;;;9.27;7.05;;;;;;;14.09;49.92;101194.81;687856;28;1168;-80
2022/05/13 00:01:53;;;;;;;9.60;7.18;;;;;;;14.09;49.88;101194.81;693272;28;1168;-79
2022/05/13 00:02:13;;;;;;;8.25;7.00;;;;;;;14.08;49.82;101195.69;687821;28;1289;-79
2022/05/13 00:02:34;;;;;;;12.45;7.28;;;;;;;14.03;49.86;101184.19;685079;28;1149;-79
2022/05/13 00:02:55;;;;;;;11.30;6.70;;;;;;;14.06;50.08;101189.50;685198;28;947;-79
2022/05/13 00:03:16;;;;;;;12.97;6.77;;;;;;;14.04;50.08;101183.34;685175;28;1203;-79
2022/05/13 00:03:38;;;;;;;9.18;6.30;;;;;;;14.02;50.00;101180.66;687757;28;1214;-79
2022/05/13 00:03:59;;;;;;;10.82;6.82;;;;;;;14.02;49.68;101190.31;687913;28;882;-79
2022/05/13 00:04:20;;;;;;;11.75;6.75;;;;;;;14.09;50.01;101197.44;693123;28;1464;-79
2022/05/13 00:04:41;;;;;;;12.45;6.75;;;;;;;14.06;50.01;101193.00;695894;28;1104;-79
2022/05/13 00:05:03;;;;;;;10.30;6.47;;;;;;;14.02;49.96;101193.78;693200;28;1084;-79
2022/05/13 00:05:24;;;;;;;7.60;6.47;;;;;;;14.01;49.97;101191.16;687904;28;787;-80
2022/05/13 00:05:45;;;;;;;7.53;6.82;;;;;;;13.97;50.26;101185.81;687810;28;1021;-79
2022/05/13 00:06:06;;;;;;;7.72;6.93;;;;;;;14.02;50.10;101193.78;689971;28;1153;-79
2022/05/13 00:06:27;;;;;;;7.68;6.88;;;;;;;13.99;50.11;101191.13;682303;29;1516;-79
2022/05/13 00:06:47;;;;;;;7.18;6.50;;;;;;;13.99;50.04;101191.13;687268;28;1274;-80
2022/05/13 00:07:08;;;;;;;7.83;7.00;;;;;;;13.94;50.27;101184.88;690510;28;978;-80
2022/05/13 00:07:29;;;;;;;9.07;7.50;;;;;;;13.97;50.29;101190.22;693202;28;953;-81
2022/05/13 00:07:49;;;;;;;10.45;7.47;;;;;;;13.94;50.22;101188.41;685273;28;1349;-79
2022/05/13 00:08:10;;;;;;;9.75;7.20;;;;;;;13.97;50.33;101193.69;690607;28;986;-79
2022/05/13 00:08:31;;;;;;;9.77;7.07;;;;;;;13.96;50.29;101191.06;690341;28;1212;-79
2022/05/13 00:08:51;;;;;;;8.68;7.03;;;;;;;13.94;50.43;101188.41;693004;28;1310;-80
2022/05/13 00:09:13;;;;;;;8.18;6.90;;;;;;;13.96;50.32;101189.31;687751;28;1207;-79
2022/05/13 00:10:13;;;;;;;9.73;6.60;;;;;;;13.93;50.74;101181.38;685077;28;993;-79
2022/05/13 00:10:34;;;;;;;9.90;7.00;;;;;;;13.83;50.53;101168.94;682449;28;1208;-80
2022/05/13 00:10:56;;;;;;;10.73;7.10;;;;;;;13.95;50.58;101187.53;685185;28;1429;-79
2022/05/13 00:11:17;;;;;;;9.90;7.07;;;;;;;13.89;50.44;101178.66;687858;28;1112;-79
2022/05/13 00:11:38;;;;;;;10.85;7.18;;;;;;;13.86;50.59;101184.72;687663;28;1118;-80
2022/05/13 00:11:59;;;;;;;10.32;7.10;;;;;;;13.93;50.80;101191.88;690648;28;827;-80
2022/05/13 00:12:20;;;;;;;10.52;6.97;;;;;;;13.87;50.61;101180.38;687731;28;1158;-79
2022/05/13 00:12:40;;;;;;;8.00;6.40;;;;;;;13.81;51.08;101174.16;687786;28;1001;-79
2022/05/13 00:13:01;;;;;;;7.55;6.40;;;;;;;13.83;50.75;101180.31;685224;28;824;-79
2022/05/13 00:13:22;;;;;;;9.07;6.70;;;;;;;13.87;50.79;101185.63;687806;28;1052;-80
2022/05/13 00:13:43;;;;;;;9.70;7.18;;;;;;;13.87;50.81;101189.13;687772;28;986;-80
2022/05/13 00:14:04;;;;;;;9.80;7.40;;;;;;;13.84;51.18;101181.19;690401;28;1336;-79
2022/05/13 00:14:24;;;;;;;10.95;7.15;;;;;;;13.81;50.91;101170.63;687830;28;1357;-79
2022/05/13 00:14:45;;;;;;;10.13;6.70;;;;;;;13.85;51.09;101172.47;692653;28;1129;-79
2022/05/13 00:15:09;;;;;;;11.90;6.63;;;;;;;13.90;50.74;101178.69;693144;28;1383;-79
2022/05/13 00:15:30;;;;;;;10.40;7.00;;;;;;;13.90;51.04;101186.53;684911;28;1178;-79
2022/05/13 00:15:52;;;;;;;9.88;7.10;;;;;;;13.89;50.75;101178.66;690536;28;851;-79
2022/05/13 00:16:14;;;;;;;8.90;7.00;;;;;;;13.89;50.94;101184.78;690320;28;1333;-80
2022/05/13 00:16:35;;;;;;;8.85;7.00;;;;;;;13.91;50.82;101183.09;690518;28;988;-79
2022/05/13 00:16:56;;;;;;;9.98;7.10;;;;;;;13.84;50.77;101178.56;690563;28;847;-79
2022/05/13 00:17:17;;;;;;;9.67;7.20;;;;;;;13.86;50.96;101171.63;689720;28;1159;-79
2022/05/13 00:18:16;;;;;;;10.68;7.03;;;;;;;13.92;51.02;101184.88;687264;28;1188;-80
2022/05/13 00:18:37;;;;;;;7.22;6.53;;;;;;;13.80;51.11;101181.97;693283;28;1018;-80
2022/05/13 00:18:59;;;;;;;7.22;6.50;;;;;;;13.79;51.21;101178.47;690574;28;984;-79
2022/05/13 00:19:19;;;;;;;8.32;6.97;;;;;;;13.79;51.14;101177.59;690372;28;1359;-80
2022/05/13 00:19:40;;;;;;;10.73;7.30;;;;;;;13.81;51.46;101181.13;681970;28;1162;-79
2022/05/13 00:20:03;;;;;;;11.10;7.70;;;;;;;13.78;51.35;101181.06;689476;28;1055;-79
2022/05/13 00:20:25;;;;;;;9.98;7.28;;;;;;;13.71;51.56;101180.06;687811;28;1225;-79
2022/05/13 00:20:45;;;;;;;8.65;6.78;;;;;;;13.64;51.61;101171.16;687735;28;1050;-78
2022/05/13 00:21:06;;;;;;;9.10;7.05;;;;;;;13.66;51.73;101177.31;685109;28;1185;-79
2022/05/13 00:21:27;;;;;;;10.35;7.07;;;;;;;13.67;51.51;101176.47;687856;28;1303;-80
2022/05/13 00:21:47;;;;;;;10.50;7.43;;;;;;;13.68;51.88;101182.59;682369;28;1142;-79
2022/05/13 00:22:33;;;;;;;10.10;7.20;;;;;;;13.67;51.90;101189.59;687564;28;1231;-80
2022/05/13 00:22:57;;;;;;;9.70;6.68;;;;;;;13.63;51.67;101177.25;685146;28;1193;-80
2022/05/13 00:23:18;;;;;;;12.55;7.18;;;;;;;13.57;51.59;101174.50;685101;28;1196;-79
2022/05/13 00:23:39;;;;;;;13.73;7.53;;;;;;;13.62;51.92;101185.97;687830;28;975;-80
2022/05/13 00:23:59;;;;;;;12.82;7.22;;;;;;;13.68;51.77;101180.88;684356;28;965;-79
2022/05/13 00:24:20;;;;;;;10.10;6.90;;;;;;;13.74;51.76;101179.22;687297;28;1465;-80
2022/05/13 00:24:40;;;;;;;10.00;6.95;;;;;;;13.78;51.73;101186.31;687595;28;1209;-79
2022/05/13 00:25:10;;;;;;;11.98;7.32;;;;;;;13.71;51.37;101165.19;687772;28;1287;-79
2022/05/13 00:25:33;;;;;;;19.23;8.50;;;;;;;13.83;51.42;101188.16;682494;29;1026;-79
2022/05/13 00:25:55;;;;;;;19.90;8.63;;;;;;;13.75;51.68;101171.38;682452;29;1313;-79
2022/05/13 00:26:27;;;;;;;22.23;8.85;;;;;;;13.84;51.72;101191.69;690270;28;1237;-79
2022/05/13 00:26:48;;;;;;;12.20;7.35;;;;;;;13.84;51.34;101181.19;690500;28;795;-79
2022/05/13 00:27:08;;;;;;;8.13;6.80;;;;;;;13.86;51.36;101182.09;688478;28;1387;-79
2022/05/13 00:27:29;;;;;;;8.55;7.10;;;;;;;13.91;51.42;101188.34;693145;28;1231;-79
2022/05/13 00:27:50;;;;;;;9.30;7.27;;;;;;;13.91;51.27;101180.47;687743;28;1155;-79
2022/05/13 00:28:11;;;;;;;10.43;7.47;;;;;;;13.87;51.50;101173.38;690419;28;1611;-79
2022/05/13 00:28:31;;;;;;;9.77;7.35;;;;;;;13.92;51.41;101183.97;690405;28;1216;-79
2022/05/13 00:28:52;;;;;;;9.23;7.18;;;;;;;13.90;51.53;101176.06;690526;28;1346;-79
2022/05/13 00:29:13;;;;;;;8.73;6.90;;;;;;;13.97;51.22;101188.44;687740;28;1288;-80
2022/05/13 00:29:34;;;;;;;10.32;7.25;;;;;;;13.98;51.20;101192.88;684565;28;1400;-79
2022/05/13 00:29:55;;;;;;;9.65;7.07;;;;;;;13.96;51.21;101186.69;690241;28;1399;-80
2022/05/13 00:30:16;;;;;;;10.00;7.13;;;;;;;13.92;51.43;101182.25;687554;28;1466;-79
2022/05/13 00:30:40;;;;;;;8.35;6.70;;;;;;;13.87;51.44;101178.63;685110;28;965;-80
2022/05/13 00:31:04;;;;;;;9.30;7.13;;;;;;;13.86;51.24;101179.47;687723;28;1292;-80
2022/05/13 00:31:25;;;;;;;8.15;7.32;;;;;;;13.87;51.32;101180.38;685180;28;1210;-79
2022/05/13 00:31:46;;;;;;;8.57;7.60;;;;;;;13.87;51.25;101181.25;687706;28;1073;-80
2022/05/13 00:32:08;;;;;;;10.00;7.50;;;;;;;13.88;51.29;101190.88;689678;28;1390;-79
2022/05/13 00:32:29;;;;;;;10.05;7.15;;;;;;;13.88;51.44;101188.25;693092;28;1118;-79
2022/05/13 00:32:49;;;;;;;9.77;7.30;;;;;;;13.88;51.34;101184.78;693229;28;1172;-79
2022/05/13 00:33:10;;;;;;;9.63;7.30;;;;;;;13.82;51.30;101177.63;685191;28;1094;-81
2022/05/13 00:33:32;;;;;;;12.07;7.53;;;;;;;13.84;51.26;101179.44;690356;28;1085;-79
2022/05/13 00:33:53;;;;;;;12.00;7.30;;;;;;;13.82;51.42;101180.25;690527;28;1380;-79
2022/05/13 00:34:14;;;;;;;13.02;7.43;;;;;;;13.77;51.55;101179.28;690420;28;1270;-79
2022/05/13 00:34:35;;;;;;;11.20;7.53;;;;;;;13.75;51.59;101181.88;683023;28;995;-80
2022/05/13 00:34:56;;;;;;;10.85;7.50;;;;;;;13.74;51.79;101176.59;693164;28;1287;-79
2022/05/13 00:35:18;;;;;;;9.10;7.33;;;;;;;13.70;51.71;101170.38;692813;28;1237;-81
2022/05/13 00:35:39;;;;;;;9.40;7.25;;;;;;;13.75;51.64;101181.00;690228;28;2071;-79
2022/05/13 00:35:59;;;;;;;8.98;7.30;;;;;;;13.70;51.76;101173.00;687905;28;729;-79
2022/05/13 00:36:20;;;;;;;8.63;7.40;;;;;;;13.72;51.72;101181.81;684903;28;1980;-80
2022/05/13 00:36:41;;;;;;;8.47;7.57;;;;;;;13.73;51.89;101177.44;687166;28;1183;-79
2022/05/13 00:37:01;;;;;;;8.60;7.70;;;;;;;13.70;51.88;101184.41;685090;28;1422;-79
2022/05/13 00:37:22;;;;;;;8.05;7.25;;;;;;;13.64;51.86;101180.78;687885;28;819;-80
2022/05/13 00:37:43;;;;;;;8.30;7.20;;;;;;;13.62;51.71;101170.25;687700;28;1454;-79
2022/05/13 00:38:04;;;;;;;11.55;7.30;;;;;;;13.64;51.83;101175.53;687614;28;1347;-80
2022/05/13 00:38:25;;;;;;;12.40;7.43;;;;;;;13.65;52.03;101179.91;690547;28;669;-80
2022/05/13 00:38:47;;;;;;;12.02;7.20;;;;;;;13.57;52.07;101172.75;687662;28;1343;-79
2022/05/13 00:39:08;;;;;;;10.32;7.50;;;;;;;13.59;52.14;101169.28;690440;28;1287;-79
2022/05/13 00:39:28;;;;;;;9.80;7.40;;;;;;;13.64;52.00;101183.41;687561;28;1049;-79
2022/05/13 00:39:49;;;;;;;9.80;7.33;;;;;;;13.62;52.24;101180.72;687490;28;712;-82
2022/05/13 00:40:12;;;;;;;9.80;7.30;;;;;;;13.62;52.25;101185.06;687701;28;1066;-79
2022/05/13 00:40:34;;;;;;;9.98;7.40;;;;;;;13.62;52.04;101180.72;695854;28;1229;-80
2022/05/13 00:40:55;;;;;;;11.32;7.90;;;;;;;13.63;52.02;101182.50;687793;28;1363;-79
2022/05/13 00:41:16;;;;;;;11.75;7.60;;;;;;;13.66;52.35;101181.69;693524;28;993;-80
2022/05/13 00:41:39;;;;;;;14.00;8.10;;;;;;;13.65;51.99;101179.91;687064;28;1521;-79
2022/05/13 00:42:12;;;;;;;12.50;7.80;;;;;;;13.63;52.03;101169.38;687218;28;1601;-79
2022/05/13 00:42:33;;;;;;;9.35;7.30;;;;;;;13.64;51.97;101176.41;690362;28;1208;-80
2022/05/13 00:43:05;;;;;;;10.45;7.35;;;;;;;13.68;52.22;101174.72;686693;28;1206;-79
2022/05/13 00:43:52;;;;;;;10.80;7.90;;;;;;;13.70;51.97;101173.91;684479;28;1347;-79
2022/05/13 00:44:14;;;;;;;9.55;7.40;;;;;;;13.65;52.25;101162.44;690453;28;989;-79
2022/05/13 00:44:34;;;;;;;10.05;7.30;;;;;;;13.62;52.18;101165.00;687824;28;1029;-80
2022/05/13 00:44:57;;;;;;;10.23;7.80;;;;;;;13.65;52.30;101158.94;690199;28;1424;-79
2022/05/13 00:45:18;;;;;;;10.15;7.72;;;;;;;13.67;52.44;101163.38;682375;29;1266;-79
2022/05/13 00:45:39;;;;;;;9.68;7.65;;;;;;;13.70;52.26;101173.91;690397;28;1352;-79
2022/05/13 00:46:00;;;;;;;9.80;8.20;;;;;;;13.70;52.27;101173.91;687723;28;1380;-79
2022/05/13 00:46:21;;;;;;;10.93;8.30;;;;;;;13.71;52.08;101174.81;690491;28;1218;-79
2022/05/13 00:46:41;;;;;;;10.65;7.95;;;;;;;13.69;52.15;101166.91;687610;28;1204;-79
2022/05/13 00:47:04;;;;;;;10.07;7.80;;;;;;;13.71;52.34;101172.19;693068;28;1104;-79
2022/05/13 00:47:25;;;;;;;10.50;7.95;;;;;;;13.67;52.34;101163.38;690456;28;1377;-79
2022/05/13 00:47:46;;;;;;;10.75;8.18;;;;;;;13.64;52.43;101162.41;686985;28;1368;-79
2022/05/13 00:48:07;;;;;;;11.90;8.27;;;;;;;13.59;52.55;101164.94;693203;28;1021;-79
2022/05/13 00:48:27;;;;;;;12.38;8.18;;;;;;;13.62;52.11;101164.09;689636;28;1384;-80
2022/05/13 00:48:49;;;;;;;11.97;8.23;;;;;;;13.56;52.35;101149.13;685189;28;1037;-79
2022/05/13 00:49:13;;;;;;;11.37;8.17;;;;;;;13.64;52.26;101172.91;690412;28;1103;-79
2022/05/13 00:49:34;;;;;;;11.02;8.55;;;;;;;13.62;52.42;101169.34;689776;28;1341;-79
2022/05/13 00:49:57;;;;;;;11.32;8.52;;;;;;;13.55;52.52;101157.84;687703;28;1328;-79
2022/05/13 00:50:19;;;;;;;9.95;8.52;;;;;;;13.55;52.72;101161.38;687757;28;1260;-79
2022/05/13 00:50:41;;;;;;;9.18;7.95;;;;;;;13.56;52.56;101159.59;690400;28;1045;-80
2022/05/13 00:51:05;;;;;;;10.20;7.85;;;;;;;13.57;52.53;101148.25;690455;28;1412;-79
2022/05/13 00:51:29;;;;;;;11.55;7.78;;;;;;;13.63;52.37;101166.75;695918;28;1258;-79
2022/05/13 00:51:50;;;;;;;13.70;8.05;;;;;;;13.57;52.57;101151.78;692977;28;1464;-79
2022/05/13 00:52:12;;;;;;;13.00;7.97;;;;;;;13.66;52.20;101164.19;687714;28;1140;-79
2022/05/13 00:52:32;;;;;;;12.35;7.95;;;;;;;13.60;52.29;101150.97;687694;28;961;-80
2022/05/13 00:52:53;;;;;;;10.30;7.70;;;;;;;13.55;52.57;101144.72;687847;28;854;-79
2022/05/13 00:53:14;;;;;;;10.10;7.80;;;;;;;13.66;52.25;101160.69;682316;28;1236;-79
2022/05/13 00:53:35;;;;;;;10.90;7.67;;;;;;;13.65;52.26;101167.66;690068;28;1367;-79
2022/05/13 00:53:56;;;;;;;11.10;7.95;;;;;;;13.58;52.49;101152.66;687848;28;811;-79
2022/05/13 00:54:17;;;;;;;10.05;7.90;;;;;;;13.55;52.57;101149.97;685061;28;1240;-80
2022/05/13 00:54:41;;;;;;;9.60;7.80;;;;;;;13.60;52.42;101164.09;684963;28;1260;-79
2022/05/13 00:55:08;;;;;;;8.77;7.78;;;;;;;13.56;52.67;101159.59;690316;28;1181;-79
2022/05/13 00:55:34;;;;;;;9.30;8.13;;;;;;;13.61;52.36;101160.59;687672;28;1226;-79
2022/05/13 00:55:55;;;;;;;9.60;8.18;;;;;;;13.56;52.47;101155.25;685039;28;1054;-79
2022/05/13 00:56:19;;;;;;;12.23;8.60;;;;;;;13.51;52.86;101156.03;690466;28;1914;-79
2022/05/13 00:56:45;;;;;;;13.45;8.65;;;;;;;13.54;52.71;101164.81;685069;28;942;-80
2022/05/13 00:57:06;;;;;;;12.30;8.23;;;;;;;13.51;53.01;101159.50;685199;28;2022;-79
2022/05/13 00:57:27;;;;;;;12.07;8.18;;;;;;;13.51;52.89;101156.88;684712;28;1386;-79
2022/05/13 00:57:49;;;;;;;10.00;8.27;;;;;;;13.47;52.64;101154.16;693103;28;1248;-79
2022/05/13 00:58:17;;;;;;;9.30;8.00;;;;;;;13.43;52.92;101153.22;693000;28;1235;-79
2022/05/13 00:58:41;;;;;;;10.15;8.05;;;;;;;13.39;52.73;101152.25;690322;28;918;-79
2022/05/13 00:59:06;;;;;;;11.80;7.95;;;;;;;13.40;52.79;101158.41;687688;28;1202;-79
2022/05/13 00:59:30;;;;;;;14.43;8.38;;;;;;;13.37;53.10;101153.06;690028;28;1343;-80
2022/05/13 00:59:53;;;;;;;14.95;8.40;;;;;;;13.30;52.97;101146.81;690268;28;1403;-79
2022/05/13 01:00:15;;;;;;;13.40;8.43;;;;;;;13.31;53.17;101153.81;684909;28;1581;-79
2022/05/13 01:00:36;;;;;;;12.70;8.70;;;;;;;13.26;53.00;101145.84;687352;28;1349;-79
2022/05/13 01:00:57;;;;;;;12.67;8.90;;;;;;;13.22;53.22;101145.75;690459;28;1265;-79
2022/05/13 01:01:17;;;;;;;14.02;8.80;;;;;;;13.22;53.30;101148.38;690644;28;1087;-79
2022/05/13 01:01:38;;;;;;;11.68;8.40;;;;;;;13.22;53.61;101148.38;690298;28;1084;-79
2022/05/13 01:01:59;;;;;;;12.70;8.80;;;;;;;13.25;53.19;101154.56;691874;28;1479;-79
2022/05/13 01:02:21;;;;;;;10.27;8.50;;;;;;;13.25;53.41;101151.06;690485;28;1131;-79
2022/05/13 01:02:45;;;;;;;10.80;8.48;;;;;;;13.24;53.35;101146.66;690224;28;1188;-79
2022/05/13 01:03:06;;;;;;;9.45;8.00;;;;;;;13.25;53.41;101157.19;693002;28;1394;-79
2022/05/13 01:03:27;;;;;;;13.00;8.48;;;;;;;13.24;53.69;101152.81;693154;28;969;-79
2022/05/13 01:03:49;;;;;;;13.87;8.53;;;;;;;13.21;53.41;101147.47;693169;28;1299;-79
2022/05/13 01:04:12;;;;;;;13.60;8.50;;;;;;;13.20;53.42;101140.47;687821;28;1070;-79
2022/05/13 01:04:34;;;;;;;10.68;8.45;;;;;;;13.23;53.51;101144.91;687533;28;1203;-79
2022/05/13 01:04:55;;;;;;;11.65;8.90;;;;;;;13.22;53.47;101149.25;690465;28;1294;-79
2022/05/13 01:05:18;;;;;;;13.02;9.10;;;;;;;13.32;53.50;101163.44;686924;28;1326;-79
2022/05/13 01:05:43;;;;;;;14.07;8.75;;;;;;;13.23;53.65;101150.16;687288;28;1274;-80
2022/05/13 01:06:06;;;;;;;14.60;8.90;;;;;;;13.29;53.42;101152.91;693067;28;1242;-79
2022/05/13 01:06:27;;;;;;;14.20;9.10;;;;;;;13.25;53.46;101145.81;692281;28;1258;-79
2022/05/13 01:06:51;;;;;;;12.57;8.88;;;;;;;13.31;53.61;101161.69;682393;29;1344;-79
2022/05/13 01:07:16;;;;;;;11.40;9.07;;;;;;;13.21;53.88;101144.00;684954;28;1381;-80
2022/05/13 01:07:37;;;;;;;11.23;8.73;;;;;;;13.26;53.69;101140.63;687482;28;1576;-79
2022/05/13 01:08:00;;;;;;;10.25;8.55;;;;;;;13.36;53.70;101162.69;685187;28;807;-79
2022/05/13 01:08:21;;;;;;;10.55;8.55;;;;;;;13.35;53.49;101150.44;690194;28;1235;-79
2022/05/13 01:08:57;;;;;;;10.97;8.50;;;;;;;13.30;53.46;101145.06;690414;28;1002;-80
2022/05/13 01:09:20;;;;;;;11.43;8.35;;;;;;;13.35;53.46;101149.53;687621;28;1373;-80
2022/05/13 01:09:51;;;;;;;10.93;8.30;;;;;;;13.38;53.76;101153.13;689853;28;1073;-79
2022/05/13 01:10:18;;;;;;;12.02;8.50;;;;;;;13.44;53.52;101154.97;687743;28;1032;-79
2022/05/13 01:10:42;;;;;;;11.43;8.43;;;;;;;13.31;53.28;101143.34;690344;28;1297;-79
2022/05/13 01:11:07;;;;;;;11.20;8.60;;;;;;;13.37;53.24;101153.06;695849;28;1055;-79
2022/05/13 01:11:32;;;;;;;11.00;8.40;;;;;;;13.40;53.53;101164.50;685000;28;1354;-79
2022/05/13 01:11:55;;;;;;;11.25;8.63;;;;;;;13.39;53.23;101161.88;686483;28;1196;-79
2022/05/13 01:12:21;;;;;;;13.40;8.68;;;;;;;13.35;53.50;101147.81;690351;28;987;-80
2022/05/13 01:12:49;;;;;;;15.20;8.68;;;;;;;13.30;53.59;101152.06;693058;28;1126;-80
2022/05/13 01:13:15;;;;;;;14.32;8.57;;;;;;;13.32;53.58;101158.22;685076;28;1112;-79
2022/05/13 01:13:37;;;;;;;13.20;8.60;;;;;;;13.33;53.35;101162.59;687614;28;1216;-79
2022/05/13 01:14:02;;;;;;;11.43;8.65;;;;;;;13.31;53.37;101159.06;689790;28;1357;-79
2022/05/13 01:14:28;;;;;;;11.98;8.70;;;;;;;13.32;53.51;101166.06;693145;28;1223;-79
2022/05/13 01:14:56;;;;;;;11.82;8.25;;;;;;;13.18;53.65;101146.53;687632;28;1986;-79
2022/05/13 01:15:25;;;;;;;11.52;8.18;;;;;;;13.25;53.68;101154.56;685068;28;1179;-78
2022/05/13 01:15:47;;;;;;;12.05;8.10;;;;;;;13.16;53.57;101142.13;687602;28;1437;-79
2022/05/13 01:16:08;;;;;;;14.27;8.07;;;;;;;13.20;53.69;101145.72;684948;28;1379;-79
2022/05/13 01:18:04;;;;;;;13.48;8.10;;;;;;;13.18;53.82;101149.13;684757;28;1911;-79
2022/05/13 01:18:06;;;;;;;10.45;8.40;;;;;;;13.18;54.09;101151.75;692909;28;1248;-80
2022/05/13 01:18:36;;;;;;;11.98;8.60;;;;;;;13.19;53.76;101158.78;690284;28;1128;-79
2022/05/13 01:18:56;;;;;;;13.00;8.68;;;;;;;13.16;53.77;101157.84;684844;28;1264;-79
2022/05/13 01:19:18;;;;;;;13.20;8.60;;;;;;;13.10;54.18;101147.22;690448;28;1389;-79
2022/05/13 01:19:39;;;;;;;11.15;8.23;;;;;;;13.12;53.92;101153.41;687133;28;1032;-79
2022/05/13 01:20:00;;;;;;;11.10;8.30;;;;;;;13.10;53.96;101149.84;690366;28;1331;-79
2022/05/13 01:20:24;;;;;;;9.60;8.10;;;;;;;13.16;54.13;101159.59;689387;28;1409;-79
2022/05/13 01:20:50;;;;;;;11.20;8.63;;;;;;;13.06;54.41;101142.78;689556;28;1343;-79
2022/05/13 01:21:15;;;;;;;11.48;9.02;;;;;;;13.16;54.17;101164.84;688099;28;1107;-80
2022/05/13 01:21:36;;;;;;;11.07;9.38;;;;;;;13.08;54.29;101154.16;690822;28;1015;-79
2022/05/13 01:21:58;;;;;;;10.87;9.40;;;;;;;13.06;54.14;101149.75;688231;28;1264;-79
2022/05/13 01:22:18;;;;;;;11.93;8.95;;;;;;;13.06;54.09;101145.41;693725;28;1122;-79
2022/05/13 01:22:53;;;;;;;11.55;8.70;;;;;;;13.00;54.18;101140.91;696124;28;951;-79
2022/05/13 01:23:36;;;;;;;10.93;8.73;;;;;;;13.01;54.33;101147.00;688047;28;1103;-79
2022/05/13 01:23:57;;;;;;;10.88;9.00;;;;;;;13.01;54.44;101154.88;690183;28;1283;-80
2022/05/13 01:24:19;;;;;;;11.02;9.15;;;;;;;12.99;54.52;101147.00;690812;28;1099;-79
2022/05/13 01:24:39;;;;;;;12.27;9.27;;;;;;;13.05;54.46;101156.72;690899;28;978;-80
2022/05/13 01:25:01;;;;;;;13.80;9.00;;;;;;;12.96;54.67;101143.41;688878;28;1246;-79
2022/05/13 01:25:26;;;;;;;14.52;8.98;;;;;;;13.05;54.81;101167.22;690431;28;1265;-79
2022/05/13 01:25:49;;;;;;;14.38;8.80;;;;;;;12.98;54.51;101157.44;686138;28;1203;-79
2022/05/13 01:26:16;;;;;;;12.02;8.23;;;;;;;12.99;54.64;101156.56;688209;28;961;-79
2022/05/13 01:26:37;;;;;;;11.95;8.20;;;;;;;12.95;54.84;101154.72;692835;28;1181;-79
2022/05/13 01:26:57;;;;;;;12.10;8.70;;;;;;;12.95;54.71;101149.47;693547;28;1433;-81
2022/05/13 01:27:18;;;;;;;12.80;8.95;;;;;;;12.98;54.60;101160.91;686928;28;1346;-79
2022/05/13 01:27:43;;;;;;;12.03;9.07;;;;;;;12.88;55.05;101144.06;685527;28;1185;-79
2022/05/13 01:28:08;;;;;;;9.93;8.63;;;;;;;12.89;54.47;101145.84;690254;28;1306;-79
2022/05/13 01:28:32;;;;;;;11.70;8.60;;;;;;;12.94;54.89;101158.19;693510;28;1033;-80
2022/05/13 01:28:55;;;;;;;13.40;9.25;;;;;;;12.98;54.78;101157.44;688146;28;1987;-79
2022/05/13 01:29:16;;;;;;;14.85;9.20;;;;;;;12.93;54.64;101156.38;688141;28;1205;-79
2022/05/13 01:29:37;;;;;;;13.75;8.95;;;;;;;12.97;54.57;101163.53;682430;29;1163;-79
2022/05/13 01:29:57;;;;;;;16.13;8.77;;;;;;;12.86;54.88;101143.13;682865;28;1047;-79
2022/05/13 01:30:23;;;;;;;15.07;8.75;;;;;;;12.93;54.88;101154.69;685504;28;1077;-79
2022/05/13 01:30:48;;;;;;;11.88;8.50;;;;;;;12.92;54.91;101152.00;690825;28;1372;-79
2022/05/13 01:31:13;;;;;;;13.10;8.50;;;;;;;12.96;55.06;101153.91;693551;28;1106;-80
2022/05/13 01:31:36;;;;;;;12.75;8.52;;;;;;;12.88;55.08;101151.03;690873;28;1359;-79
2022/05/13 01:31:57;;;;;;;11.13;8.48;;;;;;;12.84;54.83;101144.84;682923;28;1153;-79
2022/05/13 01:32:17;;;;;;;11.77;8.80;;;;;;;12.92;55.08;101157.22;688965;28;1756;-79
2022/05/13 01:32:38;;;;;;;13.60;9.27;;;;;;;12.82;54.85;101138.69;693688;28;1000;-79
2022/05/13 01:32:59;;;;;;;14.07;9.07;;;;;;;12.94;54.82;101160.81;690931;28;1189;-80
2022/05/13 01:33:21;;;;;;;12.23;8.77;;;;;;;12.85;54.93;101136.13;685558;28;1301;-80
2022/05/13 01:34:07;;;;;;;12.43;8.80;;;;;;;12.95;54.92;101155.63;688132;28;1187;-79
2022/05/13 01:34:28;;;;;;;13.52;9.63;;;;;;;12.83;54.96;101142.16;688016;28;1102;-79
2022/05/13 01:34:49;;;;;;;14.53;9.50;;;;;;;12.88;55.26;101158.91;690538;28;1669;-80
2022/05/13 01:35:11;;;;;;;13.18;9.20;;;;;;;12.85;55.21;101154.47;690673;28;1062;-80
2022/05/13 01:35:31;;;;;;;13.30;8.90;;;;;;;12.80;55.12;101140.38;689805;28;1360;-79
2022/05/13 01:35:55;;;;;;;11.53;8.83;;;;;;;12.91;54.97;101151.09;690828;28;1214;-79
2022/05/13 01:36:16;;;;;;;11.65;8.82;;;;;;;12.86;55.28;101144.88;685316;28;1212;-79
2022/05/13 01:36:39;;;;;;;13.30;9.10;;;;;;;12.86;55.15;101148.38;687579;28;1918;-79
2022/05/13 01:36:59;;;;;;;12.15;8.75;;;;;;;12.84;55.16;101147.47;693257;28;1313;-79
2022/05/13 01:37:20;;;;;;;13.23;8.70;;;;;;;12.87;55.10;101150.16;692804;28;1104;-80
2022/05/13 01:37:42;;;;;;;11.18;8.60;;;;;;;12.83;55.32;101142.16;690731;28;1431;-79
2022/05/13 01:38:03;;;;;;;11.30;8.73;;;;;;;12.89;55.21;101151.09;693562;28;1837;-79
2022/05/13 01:38:28;;;;;;;10.95;8.82;;;;;;;12.88;55.06;101140.56;693167;28;1284;-79
2022/05/13 01:38:49;;;;;;;11.68;8.68;;;;;;;12.93;55.17;101156.38;688286;28;882;-79
2022/05/13 01:39:10;;;;;;;13.43;9.15;;;;;;;12.87;55.07;101144.94;693213;28;1319;-79
2022/05/13 01:39:30;;;;;;;11.40;8.87;;;;;;;12.91;55.06;101145.00;693193;28;968;-79
2022/05/13 01:39:51;;;;;;;11.60;9.07;;;;;;;12.95;54.96;101152.09;693546;28;826;-79
2022/05/13 01:40:12;;;;;;;10.25;8.50;;;;;;;12.87;55.03;101134.44;690810;28;1295;-79
2022/05/13 01:40:33;;;;;;;10.23;8.30;;;;;;;12.97;55.09;101159.16;693094;28;963;-79
2022/05/13 01:40:55;;;;;;;11.13;8.40;;;;;;;12.98;54.94;101160.91;695966;28;1106;-80
2022/05/13 01:41:16;;;;;;;11.93;8.60;;;;;;;12.87;55.15;101136.16;696377;28;1003;-78
2022/05/13 01:41:37;;;;;;;11.07;8.20;;;;;;;12.95;54.90;101149.47;690790;28;978;-78
2022/05/13 01:42:01;;;;;;;10.88;8.43;;;;;;;12.92;55.09;101149.38;690910;28;800;-79
2022/05/13 01:42:21;;;;;;;10.70;8.63;;;;;;;12.94;55.27;101147.72;693471;28;1017;-79
2022/05/13 01:42:42;;;;;;;11.25;8.90;;;;;;;12.93;55.23;101146.84;688158;28;988;-80
2022/05/13 01:43:03;;;;;;;10.57;8.25;;;;;;;13.01;55.20;101160.09;690731;28;1272;-79
2022/05/13 01:43:24;;;;;;;10.00;8.05;;;;;;;13.02;55.01;101156.63;690888;28;1465;-79
2022/05/13 01:43:47;;;;;;;10.00;8.00;;;;;;;13.06;55.13;101165.47;693529;28;1046;-79
2022/05/13 01:44:08;;;;;;;10.75;7.97;;;;;;;12.95;54.68;101150.38;688016;28;1241;-79
2022/05/13 01:44:28;;;;;;;11.03;7.87;;;;;;;12.93;54.94;101145.91;693495;28;1468;-79
2022/05/13 01:44:49;;;;;;;12.32;8.05;;;;;;;12.98;55.12;101154.81;693499;28;1361;-79
2022/05/13 01:45:10;;;;;;;13.97;8.50;;;;;;;12.93;54.96;101146.84;688192;28;965;-79
2022/05/13 01:45:31;;;;;;;16.02;8.77;;;;;;;13.04;54.99;101154.97;690132;28;1634;-80
2022/05/13 01:45:52;;;;;;;13.80;8.87;;;;;;;13.00;54.78;101147.88;690849;28;1150;-79
2022/05/13 01:46:13;;;;;;;12.43;8.95;;;;;;;13.04;55.12;101151.44;690816;28;1469;-81
2022/05/13 01:46:34;;;;;;;14.75;9.15;;;;;;;12.96;55.05;101148.66;693503;28;1212;-81
2022/05/13 01:46:55;;;;;;;15.70;8.95;;;;;;;13.02;54.90;101156.63;690825;28;1283;-82
2022/05/13 01:47:16;;;;;;;16.55;8.75;;;;;;;12.98;54.94;101150.44;693102;28;1420;-81
2022/05/13 01:47:37;;;;;;;12.10;8.43;;;;;;;13.08;54.96;101166.41;690783;28;1232;-82
2022/05/13 01:47:58;;;;;;;12.32;8.60;;;;;;;12.99;54.83;101151.34;693694;28;835;-83
2022/05/13 01:48:19;;;;;;;11.57;8.57;;;;;;;12.99;54.79;101152.25;690792;28;1717;-81
2022/05/13 01:48:41;;;;;;;11.80;8.50;;;;;;;13.03;54.70;101158.41;695810;28;1228;-81